sensor_id;sensor_type;location;lat;lon;timestamp;P1;durP1;ratioP1;P2;durP2;ratioP2
22030;SDS011;11179;52.106;21.024;2023-10-09T00:00:50;10.90;;;4.60;;
22030;SDS011;11179;52.106;21.024;2023-10-09T00:03:17;8.87;;;3.70;;
22030;SDS011;11179;52.106;21.024;2023-10-09T00:05:43;10.48;;;4.18;;
22030;SDS011;11179;52.106;21.024;2023-10-09T00:08:11;9.73;;;4.40;;
22030;SDS011;11179;52.106;21.024;2023-10-09T00:10:49;11.05;;;4.50;;
22030;SDS011;11179;52.106;21.024;2023-10-09T00:13:18;9.47;;;4.50;;
22030;SDS011;11179;52.106;21.024;2023-10-09T00:15:56;19.85;;;5.32;;
22030;SDS011;11179;52.106;21.024;2023-10-09T00:18:38;13.33;;;4.17;;
22030;SDS011;11179;52.106;21.024;2023-10-09T00:21:04;12.67;;;4.67;;
22030;SDS011;11179;52.106;21.024;2023-10-09T00:23:40;10.90;;;4.93;;
22030;SDS011;11179;52.106;21.024;2023-10-09T00:26:06;17.87;;;4.77;;
22030;SDS011;11179;52.106;21.024;2023-10-09T00:28:52;11.70;;;4.80;;
22030;SDS011;11179;52.106;21.024;2023-10-09T00:31:17;12.00;;;5.00;;
22030;SDS011;11179;52.106;21.024;2023-10-09T00:33:58;9.48;;;4.22;;
22030;SDS011;11179;52.106;21.024;2023-10-09T00:36:43;12.50;;;4.20;;
22030;SDS011;11179;52.106;21.024;2023-10-09T00:39:19;11.53;;;4.30;;
22030;SDS011;11179;52.106;21.024;2023-10-09T00:42:08;7.60;;;3.63;;
22030;SDS011;11179;52.106;21.024;2023-10-09T00:44:37;9.53;;;4.80;;
22030;SDS011;11179;52.106;21.024;2023-10-09T00:47:04;10.50;;;4.10;;
22030;SDS011;11179;52.106;21.024;2023-10-09T00:49:45;9.60;;;4.57;;
22030;SDS011;11179;52.106;21.024;2023-10-09T00:52:12;11.00;;;4.23;;
22030;SDS011;11179;52.106;21.024;2023-10-09T00:54:46;9.30;;;3.80;;
22030;SDS011;11179;52.106;21.024;2023-10-09T00:57:16;12.00;;;4.82;;
22030;SDS011;11179;52.106;21.024;2023-10-09T00:59:49;9.60;;;3.80;;
22030;SDS011;11179;52.106;21.024;2023-10-09T01:02:24;8.33;;;3.67;;
22030;SDS011;11179;52.106;21.024;2023-10-09T01:05:00;8.95;;;3.80;;
22030;SDS011;11179;52.106;21.024;2023-10-09T01:07:36;9.53;;;3.97;;
22030;SDS011;11179;52.106;21.024;2023-10-09T01:10:05;9.15;;;4.15;;
22030;SDS011;11179;52.106;21.024;2023-10-09T01:12:34;9.57;;;4.50;;
22030;SDS011;11179;52.106;21.024;2023-10-09T01:15:07;10.27;;;3.53;;
22030;SDS011;11179;52.106;21.024;2023-10-09T01:17:32;9.80;;;4.30;;
22030;SDS011;11179;52.106;21.024;2023-10-09T01:20:01;9.48;;;4.05;;
22030;SDS011;11179;52.106;21.024;2023-10-09T01:22:30;15.40;;;4.10;;
22030;SDS011;11179;52.106;21.024;2023-10-09T01:24:55;10.60;;;4.50;;
22030;SDS011;11179;52.106;21.024;2023-10-09T01:27:20;10.53;;;3.90;;
22030;SDS011;11179;52.106;21.024;2023-10-09T01:29:49;9.95;;;4.20;;
22030;SDS011;11179;52.106;21.024;2023-10-09T01:32:16;13.23;;;4.30;;
22030;SDS011;11179;52.106;21.024;2023-10-09T01:34:45;8.27;;;3.87;;
22030;SDS011;11179;52.106;21.024;2023-10-09T01:37:18;7.50;;;3.57;;
22030;SDS011;11179;52.106;21.024;2023-10-09T01:39:57;9.50;;;4.03;;
22030;SDS011;11179;52.106;21.024;2023-10-09T01:42:24;10.15;;;3.65;;
22030;SDS011;11179;52.106;21.024;2023-10-09T01:45:00;7.93;;;3.60;;
22030;SDS011;11179;52.106;21.024;2023-10-09T01:47:52;10.57;;;4.40;;
22030;SDS011;11179;52.106;21.024;2023-10-09T01:50:21;12.73;;;4.37;;
22030;SDS011;11179;52.106;21.024;2023-10-09T01:52:49;10.52;;;3.97;;
22030;SDS011;11179;52.106;21.024;2023-10-09T01:55:18;10.43;;;4.13;;
22030;SDS011;11179;52.106;21.024;2023-10-09T01:58:05;10.27;;;4.20;;
22030;SDS011;11179;52.106;21.024;2023-10-09T02:00:41;9.43;;;4.03;;
22030;SDS011;11179;52.106;21.024;2023-10-09T02:03:13;7.93;;;3.50;;
22030;SDS011;11179;52.106;21.024;2023-10-09T02:05:41;10.80;;;4.20;;
22030;SDS011;11179;52.106;21.024;2023-10-09T02:08:07;8.93;;;4.07;;
22030;SDS011;11179;52.106;21.024;2023-10-09T02:10:38;8.77;;;3.83;;
22030;SDS011;11179;52.106;21.024;2023-10-09T02:13:05;8.20;;;3.83;;
22030;SDS011;11179;52.106;21.024;2023-10-09T02:15:32;9.83;;;4.13;;
22030;SDS011;11179;52.106;21.024;2023-10-09T02:18:08;8.67;;;4.13;;
22030;SDS011;11179;52.106;21.024;2023-10-09T02:21:04;9.23;;;3.97;;
22030;SDS011;11179;52.106;21.024;2023-10-09T02:23:31;8.80;;;4.10;;
22030;SDS011;11179;52.106;21.024;2023-10-09T02:26:05;8.23;;;3.87;;
22030;SDS011;11179;52.106;21.024;2023-10-09T02:28:31;12.37;;;4.27;;
22030;SDS011;11179;52.106;21.024;2023-10-09T02:31:01;7.90;;;3.60;;
22030;SDS011;11179;52.106;21.024;2023-10-09T02:33:35;16.43;;;4.33;;
22030;SDS011;11179;52.106;21.024;2023-10-09T02:36:01;9.13;;;4.07;;
22030;SDS011;11179;52.106;21.024;2023-10-09T02:38:30;8.50;;;3.53;;
22030;SDS011;11179;52.106;21.024;2023-10-09T02:40:59;9.63;;;4.30;;
22030;SDS011;11179;52.106;21.024;2023-10-09T02:43:30;9.33;;;4.30;;
22030;SDS011;11179;52.106;21.024;2023-10-09T02:46:20;8.18;;;4.03;;
22030;SDS011;11179;52.106;21.024;2023-10-09T02:48:46;10.10;;;4.38;;
22030;SDS011;11179;52.106;21.024;2023-10-09T02:56:20;11.13;;;4.70;;
22030;SDS011;11179;52.106;21.024;2023-10-09T02:59:08;9.47;;;4.10;;
22030;SDS011;11179;52.106;21.024;2023-10-09T03:01:34;11.00;;;4.27;;
22030;SDS011;11179;52.106;21.024;2023-10-09T03:04:02;9.43;;;4.50;;
22030;SDS011;11179;52.106;21.024;2023-10-09T03:06:28;12.10;;;4.60;;
22030;SDS011;11179;52.106;21.024;2023-10-09T03:08:57;9.93;;;4.10;;
22030;SDS011;11179;52.106;21.024;2023-10-09T03:11:22;10.80;;;4.40;;
22030;SDS011;11179;52.106;21.024;2023-10-09T03:13:48;12.40;;;4.67;;
22030;SDS011;11179;52.106;21.024;2023-10-09T03:16:14;8.20;;;3.87;;
22030;SDS011;11179;52.106;21.024;2023-10-09T03:18:43;10.20;;;5.07;;
22030;SDS011;11179;52.106;21.024;2023-10-09T03:21:09;8.97;;;4.30;;
22030;SDS011;11179;52.106;21.024;2023-10-09T03:23:35;9.20;;;3.87;;
22030;SDS011;11179;52.106;21.024;2023-10-09T03:26:00;8.83;;;4.23;;
22030;SDS011;11179;52.106;21.024;2023-10-09T03:28:25;11.90;;;4.53;;
22030;SDS011;11179;52.106;21.024;2023-10-09T03:30:51;9.30;;;3.77;;
22030;SDS011;11179;52.106;21.024;2023-10-09T03:33:18;9.90;;;3.90;;
22030;SDS011;11179;52.106;21.024;2023-10-09T03:42:06;10.23;;;4.40;;
22030;SDS011;11179;52.106;21.024;2023-10-09T03:44:44;8.00;;;3.67;;
22030;SDS011;11179;52.106;21.024;2023-10-09T03:47:19;10.87;;;4.13;;
22030;SDS011;11179;52.106;21.024;2023-10-09T03:49:58;8.50;;;3.90;;
22030;SDS011;11179;52.106;21.024;2023-10-09T03:52:30;12.77;;;4.28;;
22030;SDS011;11179;52.106;21.024;2023-10-09T03:55:01;11.30;;;5.50;;
22030;SDS011;11179;52.106;21.024;2023-10-09T03:57:36;9.10;;;4.03;;
22030;SDS011;11179;52.106;21.024;2023-10-09T04:00:24;11.93;;;4.40;;
22030;SDS011;11179;52.106;21.024;2023-10-09T04:02:56;12.03;;;4.63;;
22030;SDS011;11179;52.106;21.024;2023-10-09T04:05:24;14.10;;;5.30;;
22030;SDS011;11179;52.106;21.024;2023-10-09T04:07:51;11.93;;;4.87;;
22030;SDS011;11179;52.106;21.024;2023-10-09T04:10:24;9.07;;;4.13;;
22030;SDS011;11179;52.106;21.024;2023-10-09T04:13:09;10.67;;;4.20;;
22030;SDS011;11179;52.106;21.024;2023-10-09T04:18:40;11.87;;;4.17;;
22030;SDS011;11179;52.106;21.024;2023-10-09T04:21:18;11.15;;;4.75;;
22030;SDS011;11179;52.106;21.024;2023-10-09T04:24:05;9.70;;;4.43;;
22030;SDS011;11179;52.106;21.024;2023-10-09T04:26:46;8.90;;;4.60;;
22030;SDS011;11179;52.106;21.024;2023-10-09T04:29:23;14.50;;;5.10;;
22030;SDS011;11179;52.106;21.024;2023-10-09T04:32:12;10.60;;;4.80;;
22030;SDS011;11179;52.106;21.024;2023-10-09T04:34:50;10.53;;;4.67;;
22030;SDS011;11179;52.106;21.024;2023-10-09T04:37:36;10.35;;;3.80;;
22030;SDS011;11179;52.106;21.024;2023-10-09T04:40:03;11.20;;;4.90;;
22030;SDS011;11179;52.106;21.024;2023-10-09T04:42:58;7.77;;;3.60;;
22030;SDS011;11179;52.106;21.024;2023-10-09T04:45:23;13.40;;;5.17;;
22030;SDS011;11179;52.106;21.024;2023-10-09T04:48:15;11.90;;;4.70;;
22030;SDS011;11179;52.106;21.024;2023-10-09T04:51:03;11.85;;;4.82;;
22030;SDS011;11179;52.106;21.024;2023-10-09T04:53:46;11.67;;;4.73;;
22030;SDS011;11179;52.106;21.024;2023-10-09T04:56:36;10.73;;;4.90;;
22030;SDS011;11179;52.106;21.024;2023-10-09T04:59:16;15.85;;;5.22;;
22030;SDS011;11179;52.106;21.024;2023-10-09T05:01:51;16.50;;;5.17;;
22030;SDS011;11179;52.106;21.024;2023-10-09T05:04:24;8.30;;;3.87;;
22030;SDS011;11179;52.106;21.024;2023-10-09T05:07:05;11.67;;;4.37;;
22030;SDS011;11179;52.106;21.024;2023-10-09T05:10:11;10.27;;;4.20;;
22030;SDS011;11179;52.106;21.024;2023-10-09T05:13:10;15.03;;;4.53;;
22030;SDS011;11179;52.106;21.024;2023-10-09T05:15:41;11.20;;;4.63;;
22030;SDS011;11179;52.106;21.024;2023-10-09T05:18:18;10.83;;;4.40;;
22030;SDS011;11179;52.106;21.024;2023-10-09T05:20:52;10.03;;;4.57;;
22030;SDS011;11179;52.106;21.024;2023-10-09T05:23:41;12.03;;;4.43;;
22030;SDS011;11179;52.106;21.024;2023-10-09T05:26:35;10.20;;;3.80;;
22030;SDS011;11179;52.106;21.024;2023-10-09T05:29:13;12.90;;;4.67;;
22030;SDS011;11179;52.106;21.024;2023-10-09T05:31:57;11.83;;;4.27;;
22030;SDS011;11179;52.106;21.024;2023-10-09T05:34:40;11.07;;;4.37;;
22030;SDS011;11179;52.106;21.024;2023-10-09T05:37:23;11.00;;;4.53;;
22030;SDS011;11179;52.106;21.024;2023-10-09T05:43:27;10.90;;;4.70;;
22030;SDS011;11179;52.106;21.024;2023-10-09T05:46:22;11.47;;;4.67;;
22030;SDS011;11179;52.106;21.024;2023-10-09T05:49:13;19.50;;;4.87;;
22030;SDS011;11179;52.106;21.024;2023-10-09T05:51:51;12.40;;;5.20;;
22030;SDS011;11179;52.106;21.024;2023-10-09T05:54:40;12.40;;;5.13;;
22030;SDS011;11179;52.106;21.024;2023-10-09T05:57:29;14.70;;;4.57;;
22030;SDS011;11179;52.106;21.024;2023-10-09T06:00:38;12.10;;;4.83;;
22030;SDS011;11179;52.106;21.024;2023-10-09T06:03:34;14.70;;;4.57;;
22030;SDS011;11179;52.106;21.024;2023-10-09T06:06:34;11.30;;;4.90;;
22030;SDS011;11179;52.106;21.024;2023-10-09T06:09:20;10.90;;;5.20;;
22030;SDS011;11179;52.106;21.024;2023-10-09T06:12:18;15.57;;;5.63;;
22030;SDS011;11179;52.106;21.024;2023-10-09T06:15:03;14.53;;;5.00;;
22030;SDS011;11179;52.106;21.024;2023-10-09T06:17:50;13.63;;;5.17;;
22030;SDS011;11179;52.106;21.024;2023-10-09T06:20:32;20.17;;;5.10;;
22030;SDS011;11179;52.106;21.024;2023-10-09T06:23:23;13.23;;;5.20;;
22030;SDS011;11179;52.106;21.024;2023-10-09T06:26:12;16.07;;;5.37;;
22030;SDS011;11179;52.106;21.024;2023-10-09T06:28:58;13.97;;;5.33;;
22030;SDS011;11179;52.106;21.024;2023-10-09T06:31:45;11.70;;;4.80;;
22030;SDS011;11179;52.106;21.024;2023-10-09T06:34:41;17.27;;;5.47;;
22030;SDS011;11179;52.106;21.024;2023-10-09T06:37:34;9.93;;;4.90;;
22030;SDS011;11179;52.106;21.024;2023-10-09T06:40:03;15.63;;;4.87;;
22030;SDS011;11179;52.106;21.024;2023-10-09T06:42:47;10.30;;;4.13;;
22030;SDS011;11179;52.106;21.024;2023-10-09T06:45:21;12.60;;;4.70;;
22030;SDS011;11179;52.106;21.024;2023-10-09T06:48:14;13.87;;;5.07;;
22030;SDS011;11179;52.106;21.024;2023-10-09T06:51:01;23.57;;;5.37;;
22030;SDS011;11179;52.106;21.024;2023-10-09T06:53:57;9.60;;;3.83;;
22030;SDS011;11179;52.106;21.024;2023-10-09T06:56:35;10.33;;;3.63;;
22030;SDS011;11179;52.106;21.024;2023-10-09T06:59:04;14.57;;;4.47;;
22030;SDS011;11179;52.106;21.024;2023-10-09T07:01:52;10.67;;;4.13;;
22030;SDS011;11179;52.106;21.024;2023-10-09T07:04:36;13.10;;;4.50;;
22030;SDS011;11179;52.106;21.024;2023-10-09T07:07:07;14.10;;;4.50;;
22030;SDS011;11179;52.106;21.024;2023-10-09T07:10:00;12.90;;;4.90;;
22030;SDS011;11179;52.106;21.024;2023-10-09T07:12:48;10.77;;;4.00;;
22030;SDS011;11179;52.106;21.024;2023-10-09T07:15:28;15.73;;;4.38;;
22030;SDS011;11179;52.106;21.024;2023-10-09T07:18:19;12.20;;;4.50;;
22030;SDS011;11179;52.106;21.024;2023-10-09T07:21:08;14.33;;;4.70;;
22030;SDS011;11179;52.106;21.024;2023-10-09T07:23:56;11.30;;;3.93;;
22030;SDS011;11179;52.106;21.024;2023-10-09T07:26:50;10.67;;;3.90;;
22030;SDS011;11179;52.106;21.024;2023-10-09T07:29:43;12.17;;;3.93;;
22030;SDS011;11179;52.106;21.024;2023-10-09T07:32:21;11.33;;;4.10;;
22030;SDS011;11179;52.106;21.024;2023-10-09T07:35:05;10.73;;;4.40;;
22030;SDS011;11179;52.106;21.024;2023-10-09T07:38:05;14.30;;;4.77;;
22030;SDS011;11179;52.106;21.024;2023-10-09T07:40:41;14.20;;;4.30;;
22030;SDS011;11179;52.106;21.024;2023-10-09T07:43:41;11.03;;;4.50;;
22030;SDS011;11179;52.106;21.024;2023-10-09T07:48:59;11.70;;;4.60;;
22030;SDS011;11179;52.106;21.024;2023-10-09T07:51:34;10.20;;;3.93;;
22030;SDS011;11179;52.106;21.024;2023-10-09T07:54:04;13.63;;;4.57;;
22030;SDS011;11179;52.106;21.024;2023-10-09T07:59:45;12.00;;;4.30;;
22030;SDS011;11179;52.106;21.024;2023-10-09T08:02:29;15.67;;;4.20;;
22030;SDS011;11179;52.106;21.024;2023-10-09T08:04:59;15.77;;;4.70;;
22030;SDS011;11179;52.106;21.024;2023-10-09T08:07:59;32.03;;;6.23;;
22030;SDS011;11179;52.106;21.024;2023-10-09T08:10:56;13.43;;;4.17;;
22030;SDS011;11179;52.106;21.024;2023-10-09T08:13:41;18.47;;;4.43;;
22030;SDS011;11179;52.106;21.024;2023-10-09T08:16:24;12.00;;;4.07;;
22030;SDS011;11179;52.106;21.024;2023-10-09T08:19:02;12.80;;;3.90;;
22030;SDS011;11179;52.106;21.024;2023-10-09T08:21:48;10.90;;;3.93;;
22030;SDS011;11179;52.106;21.024;2023-10-09T08:24:35;9.13;;;3.90;;
22030;SDS011;11179;52.106;21.024;2023-10-09T08:27:17;16.23;;;4.90;;
22030;SDS011;11179;52.106;21.024;2023-10-09T08:32:55;12.83;;;4.30;;
22030;SDS011;11179;52.106;21.024;2023-10-09T08:35:50;10.23;;;4.00;;
22030;SDS011;11179;52.106;21.024;2023-10-09T08:38:23;10.43;;;3.60;;
22030;SDS011;11179;52.106;21.024;2023-10-09T08:40:54;11.30;;;3.77;;
22030;SDS011;11179;52.106;21.024;2023-10-09T08:43:23;8.67;;;3.57;;
22030;SDS011;11179;52.106;21.024;2023-10-09T08:45:51;14.43;;;3.60;;
22030;SDS011;11179;52.106;21.024;2023-10-09T08:48:28;9.73;;;3.87;;
22030;SDS011;11179;52.106;21.024;2023-10-09T08:51:01;12.70;;;3.43;;
22030;SDS011;11179;52.106;21.024;2023-10-09T08:53:35;13.80;;;4.23;;
22030;SDS011;11179;52.106;21.024;2023-10-09T08:56:23;15.93;;;4.77;;
22030;SDS011;11179;52.106;21.024;2023-10-09T08:59:01;10.87;;;4.20;;
22030;SDS011;11179;52.106;21.024;2023-10-09T09:01:31;10.67;;;4.27;;
22030;SDS011;11179;52.106;21.024;2023-10-09T09:04:04;14.40;;;4.30;;
22030;SDS011;11179;52.106;21.024;2023-10-09T09:06:39;14.37;;;4.33;;
22030;SDS011;11179;52.106;21.024;2023-10-09T09:09:13;11.87;;;4.03;;
22030;SDS011;11179;52.106;21.024;2023-10-09T09:11:42;11.33;;;4.20;;
22030;SDS011;11179;52.106;21.024;2023-10-09T09:14:17;21.73;;;4.77;;
22030;SDS011;11179;52.106;21.024;2023-10-09T09:16:47;14.80;;;4.77;;
22030;SDS011;11179;52.106;21.024;2023-10-09T09:19:21;10.73;;;4.07;;
22030;SDS011;11179;52.106;21.024;2023-10-09T09:22:03;17.80;;;5.50;;
22030;SDS011;11179;52.106;21.024;2023-10-09T09:24:56;12.53;;;3.63;;
22030;SDS011;11179;52.106;21.024;2023-10-09T09:27:49;14.20;;;4.10;;
22030;SDS011;11179;52.106;21.024;2023-10-09T09:30:24;10.63;;;3.60;;
22030;SDS011;11179;52.106;21.024;2023-10-09T09:36:25;7.43;;;2.83;;
22030;SDS011;11179;52.106;21.024;2023-10-09T09:39:08;9.70;;;2.60;;
22030;SDS011;11179;52.106;21.024;2023-10-09T09:42:08;9.10;;;2.93;;
22030;SDS011;11179;52.106;21.024;2023-10-09T09:44:54;10.37;;;2.90;;
22030;SDS011;11179;52.106;21.024;2023-10-09T09:47:35;7.30;;;2.53;;
22030;SDS011;11179;52.106;21.024;2023-10-09T09:50:05;8.73;;;3.00;;
22030;SDS011;11179;52.106;21.024;2023-10-09T09:52:55;10.73;;;4.10;;
22030;SDS011;11179;52.106;21.024;2023-10-09T09:55:29;10.70;;;3.13;;
22030;SDS011;11179;52.106;21.024;2023-10-09T09:58:04;11.43;;;3.10;;
22030;SDS011;11179;52.106;21.024;2023-10-09T10:00:43;10.93;;;2.43;;
22030;SDS011;11179;52.106;21.024;2023-10-09T10:03:11;10.53;;;2.43;;
22030;SDS011;11179;52.106;21.024;2023-10-09T10:05:49;9.33;;;2.60;;
22030;SDS011;11179;52.106;21.024;2023-10-09T10:08:20;7.20;;;2.90;;
22030;SDS011;11179;52.106;21.024;2023-10-09T10:11:04;5.50;;;2.30;;
22030;SDS011;11179;52.106;21.024;2023-10-09T10:13:54;6.43;;;2.30;;
22030;SDS011;11179;52.106;21.024;2023-10-09T10:16:35;8.57;;;3.07;;
22030;SDS011;11179;52.106;21.024;2023-10-09T10:19:59;17.03;;;3.60;;
22030;SDS011;11179;52.106;21.024;2023-10-09T10:22:37;8.03;;;2.70;;
22030;SDS011;11179;52.106;21.024;2023-10-09T10:25:06;7.60;;;2.60;;
22030;SDS011;11179;52.106;21.024;2023-10-09T10:27:35;11.27;;;3.03;;
22030;SDS011;11179;52.106;21.024;2023-10-09T10:30:28;7.10;;;3.07;;
22030;SDS011;11179;52.106;21.024;2023-10-09T10:33:04;6.87;;;2.40;;
22030;SDS011;11179;52.106;21.024;2023-10-09T10:35:42;9.20;;;2.80;;
22030;SDS011;11179;52.106;21.024;2023-10-09T10:38:26;7.67;;;3.20;;
22030;SDS011;11179;52.106;21.024;2023-10-09T10:41:17;9.03;;;3.20;;
22030;SDS011;11179;52.106;21.024;2023-10-09T10:43:55;8.67;;;2.70;;
22030;SDS011;11179;52.106;21.024;2023-10-09T10:46:25;10.93;;;3.20;;
22030;SDS011;11179;52.106;21.024;2023-10-09T10:49:02;11.20;;;3.83;;
22030;SDS011;11179;52.106;21.024;2023-10-09T10:51:46;11.67;;;2.93;;
22030;SDS011;11179;52.106;21.024;2023-10-09T10:57:34;9.90;;;2.97;;
22030;SDS011;11179;52.106;21.024;2023-10-09T11:00:25;8.77;;;3.07;;
22030;SDS011;11179;52.106;21.024;2023-10-09T11:03:21;10.40;;;3.60;;
22030;SDS011;11179;52.106;21.024;2023-10-09T11:06:00;7.77;;;2.90;;
22030;SDS011;11179;52.106;21.024;2023-10-09T11:08:43;10.47;;;3.30;;
22030;SDS011;11179;52.106;21.024;2023-10-09T11:11:19;8.47;;;3.40;;
22030;SDS011;11179;52.106;21.024;2023-10-09T11:13:47;8.47;;;2.70;;
22030;SDS011;11179;52.106;21.024;2023-10-09T11:16:24;14.50;;;3.80;;
22030;SDS011;11179;52.106;21.024;2023-10-09T11:19:12;10.00;;;3.13;;
22030;SDS011;11179;52.106;21.024;2023-10-09T11:22:00;12.13;;;3.87;;
22030;SDS011;11179;52.106;21.024;2023-10-09T11:24:38;7.47;;;2.83;;
22030;SDS011;11179;52.106;21.024;2023-10-09T11:27:58;7.70;;;3.20;;
22030;SDS011;11179;52.106;21.024;2023-10-09T11:30:53;8.87;;;2.93;;
22030;SDS011;11179;52.106;21.024;2023-10-09T11:33:48;11.80;;;2.90;;
22030;SDS011;11179;52.106;21.024;2023-10-09T11:36:16;8.80;;;2.87;;
22030;SDS011;11179;52.106;21.024;2023-10-09T11:39:12;13.67;;;5.93;;
22030;SDS011;11179;52.106;21.024;2023-10-09T11:42:18;10.20;;;4.20;;
22030;SDS011;11179;52.106;21.024;2023-10-09T11:45:07;7.30;;;3.00;;
22030;SDS011;11179;52.106;21.024;2023-10-09T11:47:52;9.43;;;3.43;;
22030;SDS011;11179;52.106;21.024;2023-10-09T11:50:53;7.40;;;3.10;;
22030;SDS011;11179;52.106;21.024;2023-10-09T11:53:47;9.57;;;3.80;;
22030;SDS011;11179;52.106;21.024;2023-10-09T11:56:18;7.20;;;3.00;;
22030;SDS011;11179;52.106;21.024;2023-10-09T11:58:54;6.50;;;2.73;;
22030;SDS011;11179;52.106;21.024;2023-10-09T12:01:50;6.90;;;3.27;;
22030;SDS011;11179;52.106;21.024;2023-10-09T12:04:27;12.57;;;3.20;;
22030;SDS011;11179;52.106;21.024;2023-10-09T12:07:01;13.33;;;3.00;;
22030;SDS011;11179;52.106;21.024;2023-10-09T12:09:38;7.80;;;3.33;;
22030;SDS011;11179;52.106;21.024;2023-10-09T12:12:05;6.77;;;2.97;;
22030;SDS011;11179;52.106;21.024;2023-10-09T12:14:34;8.80;;;3.10;;
22030;SDS011;11179;52.106;21.024;2023-10-09T12:17:15;9.33;;;3.30;;
22030;SDS011;11179;52.106;21.024;2023-10-09T12:19:44;9.10;;;3.33;;
22030;SDS011;11179;52.106;21.024;2023-10-09T12:22:16;10.73;;;3.50;;
22030;SDS011;11179;52.106;21.024;2023-10-09T12:24:46;9.17;;;2.97;;
22030;SDS011;11179;52.106;21.024;2023-10-09T12:27:15;13.20;;;4.30;;
22030;SDS011;11179;52.106;21.024;2023-10-09T12:29:45;10.47;;;4.00;;
22030;SDS011;11179;52.106;21.024;2023-10-09T12:32:13;12.20;;;3.20;;
22030;SDS011;11179;52.106;21.024;2023-10-09T12:34:47;7.30;;;3.20;;
22030;SDS011;11179;52.106;21.024;2023-10-09T12:37:18;7.57;;;2.93;;
22030;SDS011;11179;52.106;21.024;2023-10-09T12:39:49;10.00;;;3.73;;
22030;SDS011;11179;52.106;21.024;2023-10-09T12:42:29;9.20;;;3.57;;
22030;SDS011;11179;52.106;21.024;2023-10-09T12:45:11;8.83;;;3.30;;
22030;SDS011;11179;52.106;21.024;2023-10-09T12:48:00;10.43;;;4.07;;
22030;SDS011;11179;52.106;21.024;2023-10-09T12:50:37;15.10;;;3.50;;
22030;SDS011;11179;52.106;21.024;2023-10-09T12:53:23;8.60;;;3.60;;
22030;SDS011;11179;52.106;21.024;2023-10-09T12:55:56;7.23;;;3.17;;
22030;SDS011;11179;52.106;21.024;2023-10-09T12:58:22;8.60;;;3.67;;
22030;SDS011;11179;52.106;21.024;2023-10-09T13:00:51;9.40;;;4.20;;
22030;SDS011;11179;52.106;21.024;2023-10-09T13:03:17;7.73;;;3.40;;
22030;SDS011;11179;52.106;21.024;2023-10-09T13:05:52;7.80;;;3.30;;
22030;SDS011;11179;52.106;21.024;2023-10-09T13:08:25;8.83;;;3.47;;
22030;SDS011;11179;52.106;21.024;2023-10-09T13:18:14;11.73;;;4.53;;
22030;SDS011;11179;52.106;21.024;2023-10-09T13:20:45;13.10;;;4.60;;
22030;SDS011;11179;52.106;21.024;2023-10-09T13:23:11;15.57;;;4.73;;
22030;SDS011;11179;52.106;21.024;2023-10-09T13:25:50;9.20;;;3.80;;
22030;SDS011;11179;52.106;21.024;2023-10-09T13:36:03;10.27;;;4.60;;
22030;SDS011;11179;52.106;21.024;2023-10-09T13:39:01;12.33;;;4.50;;
22030;SDS011;11179;52.106;21.024;2023-10-09T13:42:21;9.43;;;3.93;;
22030;SDS011;11179;52.106;21.024;2023-10-09T13:48:29;12.83;;;4.07;;
22030;SDS011;11179;52.106;21.024;2023-10-09T13:51:00;12.50;;;3.50;;
22030;SDS011;11179;52.106;21.024;2023-10-09T13:53:32;10.47;;;4.20;;
22030;SDS011;11179;52.106;21.024;2023-10-09T13:56:18;20.10;;;5.50;;
22030;SDS011;11179;52.106;21.024;2023-10-09T14:01:29;11.60;;;4.43;;
22030;SDS011;11179;52.106;21.024;2023-10-09T14:04:19;10.97;;;3.87;;
22030;SDS011;11179;52.106;21.024;2023-10-09T14:07:01;14.27;;;4.10;;
22030;SDS011;11179;52.106;21.024;2023-10-09T14:09:33;10.27;;;4.50;;
22030;SDS011;11179;52.106;21.024;2023-10-09T14:12:10;12.17;;;4.40;;
22030;SDS011;11179;52.106;21.024;2023-10-09T14:17:03;9.77;;;4.73;;
22030;SDS011;11179;52.106;21.024;2023-10-09T14:19:36;16.57;;;4.53;;
22030;SDS011;11179;52.106;21.024;2023-10-09T14:22:02;11.23;;;4.20;;
22030;SDS011;11179;52.106;21.024;2023-10-09T14:24:30;9.87;;;3.90;;
22030;SDS011;11179;52.106;21.024;2023-10-09T14:26:57;11.50;;;4.47;;
22030;SDS011;11179;52.106;21.024;2023-10-09T14:29:24;11.37;;;4.70;;
22030;SDS011;11179;52.106;21.024;2023-10-09T14:31:51;15.80;;;5.70;;
22030;SDS011;11179;52.106;21.024;2023-10-09T14:34:25;11.40;;;4.40;;
22030;SDS011;11179;52.106;21.024;2023-10-09T14:36:57;14.90;;;4.93;;
22030;SDS011;11179;52.106;21.024;2023-10-09T14:39:25;11.23;;;4.63;;
22030;SDS011;11179;52.106;21.024;2023-10-09T14:41:51;11.73;;;5.03;;
22030;SDS011;11179;52.106;21.024;2023-10-09T14:44:21;14.87;;;5.17;;
22030;SDS011;11179;52.106;21.024;2023-10-09T14:47:05;13.53;;;5.50;;
22030;SDS011;11179;52.106;21.024;2023-10-09T14:49:32;20.23;;;5.03;;
22030;SDS011;11179;52.106;21.024;2023-10-09T14:52:08;14.40;;;5.60;;
22030;SDS011;11179;52.106;21.024;2023-10-09T14:57:41;12.03;;;4.97;;
22030;SDS011;11179;52.106;21.024;2023-10-09T15:03:14;14.17;;;5.70;;
22030;SDS011;11179;52.106;21.024;2023-10-09T15:05:45;23.40;;;5.93;;
22030;SDS011;11179;52.106;21.024;2023-10-09T15:08:15;14.90;;;7.30;;
22030;SDS011;11179;52.106;21.024;2023-10-09T15:10:49;21.93;;;6.87;;
22030;SDS011;11179;52.106;21.024;2023-10-09T15:13:21;20.70;;;6.57;;
22030;SDS011;11179;52.106;21.024;2023-10-09T15:15:52;18.60;;;6.77;;
22030;SDS011;11179;52.106;21.024;2023-10-09T15:18:19;20.53;;;6.30;;
22030;SDS011;11179;52.106;21.024;2023-10-09T15:20:46;18.33;;;6.40;;
22030;SDS011;11179;52.106;21.024;2023-10-09T15:23:13;14.63;;;5.93;;
22030;SDS011;11179;52.106;21.024;2023-10-09T15:25:38;14.30;;;6.07;;
22030;SDS011;11179;52.106;21.024;2023-10-09T15:28:10;18.80;;;5.53;;
22030;SDS011;11179;52.106;21.024;2023-10-09T15:30:37;21.40;;;5.47;;
22030;SDS011;11179;52.106;21.024;2023-10-09T15:33:06;14.40;;;6.07;;
22030;SDS011;11179;52.106;21.024;2023-10-09T15:35:32;12.13;;;5.30;;
22030;SDS011;11179;52.106;21.024;2023-10-09T15:38:01;16.33;;;5.50;;
22030;SDS011;11179;52.106;21.024;2023-10-09T15:40:28;13.50;;;5.17;;
22030;SDS011;11179;52.106;21.024;2023-10-09T15:43:02;16.53;;;5.97;;
22030;SDS011;11179;52.106;21.024;2023-10-09T15:45:29;13.80;;;5.43;;
22030;SDS011;11179;52.106;21.024;2023-10-09T15:48:05;19.20;;;5.20;;
22030;SDS011;11179;52.106;21.024;2023-10-09T15:50:31;16.57;;;5.87;;
22030;SDS011;11179;52.106;21.024;2023-10-09T15:52:59;18.00;;;6.03;;
22030;SDS011;11179;52.106;21.024;2023-10-09T15:55:26;22.73;;;5.80;;
22030;SDS011;11179;52.106;21.024;2023-10-09T15:57:51;15.90;;;6.47;;
22030;SDS011;11179;52.106;21.024;2023-10-09T16:00:17;17.40;;;6.70;;
22030;SDS011;11179;52.106;21.024;2023-10-09T16:02:44;14.07;;;6.20;;
22030;SDS011;11179;52.106;21.024;2023-10-09T16:05:12;19.20;;;6.70;;
22030;SDS011;11179;52.106;21.024;2023-10-09T16:07:38;20.70;;;6.87;;
22030;SDS011;11179;52.106;21.024;2023-10-09T16:10:05;19.00;;;8.27;;
22030;SDS011;11179;52.106;21.024;2023-10-09T16:12:33;21.53;;;7.90;;
22030;SDS011;11179;52.106;21.024;2023-10-09T16:14:59;23.70;;;10.10;;
22030;SDS011;11179;52.106;21.024;2023-10-09T16:17:25;20.10;;;9.83;;
22030;SDS011;11179;52.106;21.024;2023-10-09T16:19:50;34.03;;;12.97;;
22030;SDS011;11179;52.106;21.024;2023-10-09T16:22:16;29.83;;;12.90;;
22030;SDS011;11179;52.106;21.024;2023-10-09T16:24:43;26.43;;;12.00;;
22030;SDS011;11179;52.106;21.024;2023-10-09T16:27:12;31.57;;;11.30;;